TimeCET,TemperatureF,Dew PointF,Humidity,Sea Level PressureIn,VisibilityMPH,Wind Direction,Wind SpeedMPH,Gust SpeedMPH,PrecipitationIn,Events,Conditions,WindDirDegrees,DateUTC
1:55 AM,10.4,6.8,85,29.68,0.1,South,20.7,-,N/A,Fog-Snow,Light Snow,190,2012-12-14 00:55:00
2:55 AM,10.4,6.8,85,29.71,0.1,South,20.7,-,N/A,Fog-Snow,Light Snow,190,2012-12-14 01:55:00
3:55 AM,10.4,6.8,85,29.68,0.1,South,17.3,-,N/A,Fog-Snow,Light Snow,190,2012-12-14 02:55:00
4:00 AM,10,7,81,,0,South,17.3,,,Snow,Light Snow,190,2012-12-14 03:00:00
4:55 AM,10.4,6.8,85,29.68,0.1,SSW,27.6,-,N/A,Fog-Snow,Light Snow,200,2012-12-14 03:55:00
5:55 AM,8.6,5.0,85,29.71,0.1,South,10.4,-,N/A,Fog-Snow,Light Snow,190,2012-12-14 04:55:00
7:00 AM,10,7,81,,0,South,15.0,,,Snow,Light Snow,180,2012-12-14 06:00:00
10:00 AM,14,11,80,,0,South,16.1,,,Snow,Light Snow,190,2012-12-14 09:00:00
1:00 PM,15,11,77,,0,South,12.7,,,Fog,Heavy Fog,190,2012-12-14 12:00:00
3:55 PM,17.6,8.6,68,29.71,6.2,South,40.3,-,N/A,,Scattered Clouds,190,2012-12-14 14:55:00
4:00 PM,18,8,52,,6,South,40.3,,,,Overcast,190,2012-12-14 15:00:00
4:55 PM,19.4,14.0,80,29.74,6.2,South,38.0,-,N/A,,Scattered Clouds,190,2012-12-14 15:55:00
5:55 PM,19.4,14.0,80,29.71,0.5,South,34.5,-,N/A,Fog-Snow,Light Snow,190,2012-12-14 16:55:00
6:55 PM,17.6,12.2,79,29.71,0.5,SSW,19.6,-,N/A,Fog-Snow,Light Snow,200,2012-12-14 17:55:00
7:00 PM,18,13,71,,0,SSW,19.6,,,Snow,Light Snow,200,2012-12-14 18:00:00
7:55 PM,21.2,17.6,86,29.71,0.5,South,33.4,-,N/A,Fog-Snow,Light Snow,190,2012-12-14 18:55:00
8:55 PM,21.2,17.6,86,29.71,0.5,South,36.8,-,N/A,Fog-Snow,Light Snow,190,2012-12-14 19:55:00
9:55 PM,21.2,17.6,86,29.71,0.5,South,38.0,-,N/A,Fog-Snow,Light Snow,190,2012-12-14 20:55:00
10:00 PM,21,17,80,,0,South,38.0,,,Snow,Light Snow,190,2012-12-14 21:00:00
10:55 PM,21.2,17.6,86,29.71,0.3,South,18.4,-,N/A,Fog-Snow,Light Snow,190,2012-12-14 21:55:00
11:55 PM,21.2,15.8,80,29.71,0.3,South,18.4,-,N/A,Fog-Snow,Light Snow,190,2012-12-14 22:55:00